createdAt,value
2018-04-16T00:01:15.913Z,71.77
2018-04-16T00:03:44.207Z,70.60
2018-04-16T00:06:12.459Z,73.67
2018-04-16T00:08:40.803Z,70.47
2018-04-16T00:11:09.090Z,74.67
2018-04-16T00:13:39.273Z,77.90
2018-04-16T00:16:08.324Z,87.63
2018-04-16T00:18:36.638Z,87.90
2018-04-16T00:21:04.919Z,83.93
2018-04-16T00:23:33.985Z,91.07
2018-04-16T00:26:02.228Z,89.20
2018-04-16T00:28:30.533Z,93.33
2018-04-16T00:30:58.767Z,81.30
2018-04-16T00:33:32.649Z,78.57
2018-04-16T00:36:06.608Z,77.93
2018-04-16T00:38:40.626Z,89.30
2018-04-16T00:41:14.606Z,80.37
2018-04-16T00:43:48.885Z,76.83
2018-04-16T00:46:23.076Z,83.10
2018-04-16T00:48:56.906Z,82.67
2018-04-16T00:51:30.996Z,81.13
2018-04-16T00:54:17.697Z,86.07
2018-04-16T00:56:51.652Z,78.77
2018-04-16T00:59:26.544Z,85.67
2018-04-16T01:02:00.388Z,69.07
2018-04-16T01:04:35.202Z,76.00
2018-04-16T01:07:09.308Z,80.40
2018-04-16T01:09:43.283Z,81.97
2018-04-16T01:12:18.452Z,74.87
2018-04-16T01:14:52.585Z,84.23
2018-04-16T01:17:27.301Z,81.77
2018-04-16T01:20:01.432Z,74.93
2018-04-16T01:22:36.100Z,80.93
2018-04-16T01:25:11.356Z,77.57
2018-04-16T01:27:45.985Z,80.63
2018-04-16T01:33:30.138Z,71.20
2018-04-16T01:36:04.052Z,74.93
2018-04-16T01:38:38.847Z,83.13
2018-04-16T01:41:13.591Z,67.90
2018-04-16T01:43:47.473Z,65.40
2018-04-16T01:46:21.343Z,72.03
2018-04-16T01:48:55.384Z,76.37
2018-04-16T01:51:29.440Z,69.63
2018-04-16T01:54:03.353Z,66.13
2018-04-16T01:56:37.412Z,62.23
2018-04-16T01:59:11.265Z,61.63
2018-04-16T02:01:45.199Z,68.27
2018-04-16T02:04:19.271Z,68.00
2018-04-16T02:06:53.333Z,69.40
2018-04-16T02:09:27.328Z,55.30
2018-04-16T02:12:02.110Z,52.83
2018-04-16T02:14:36.974Z,67.07
2018-04-16T02:17:10.959Z,58.97
2018-04-16T02:19:45.926Z,60.23
2018-04-16T02:22:19.860Z,66.83
2018-04-16T02:24:53.845Z,60.70
2018-04-16T02:30:37.347Z,61.70
2018-04-16T02:33:12.200Z,58.37
2018-04-16T02:35:46.395Z,64.17
2018-04-16T02:38:20.425Z,64.93
2018-04-16T02:40:54.344Z,62.40
2018-04-16T02:43:28.168Z,66.17
2018-04-16T02:46:02.197Z,64.67
2018-04-16T02:48:37.076Z,51.43
2018-04-16T02:51:11.151Z,57.23
2018-04-16T02:53:46.675Z,58.73
2018-04-16T02:56:20.537Z,61.67
2018-04-16T02:58:54.556Z,66.43
2018-04-16T03:01:28.513Z,58.80
2018-04-16T03:04:02.360Z,55.78
2018-04-16T03:06:36.210Z,57.50
2018-04-16T03:09:10.759Z,58.07
2018-04-16T03:11:44.705Z,57.13
2018-04-16T03:14:18.737Z,59.93
2018-04-16T03:16:53.486Z,58.33
2018-04-16T03:19:27.523Z,55.60
2018-04-16T03:22:02.283Z,54.67
2018-04-16T03:24:36.350Z,53.70
2018-04-16T03:27:10.433Z,55.60
2018-04-16T04:15:33.650Z,47.63
2018-04-16T04:18:01.933Z,51.03
2018-04-16T04:20:31.400Z,52.83
2018-04-16T04:23:11.491Z,51.70
2018-04-16T04:25:51.664Z,52.87
2018-04-16T04:28:31.589Z,51.57
2018-04-16T04:30:59.904Z,53.10
2018-04-16T04:33:28.164Z,50.60
2018-04-16T04:35:56.453Z,58.60
2018-04-16T04:38:24.760Z,56.67
2018-04-16T04:40:53.956Z,53.33
2018-04-16T04:43:22.242Z,56.37
2018-04-16T04:45:50.512Z,55.10
2018-04-16T04:48:18.789Z,52.80
2018-04-16T04:50:47.019Z,55.10
2018-04-16T04:53:15.336Z,50.30
2018-04-16T04:55:43.621Z,51.07
2018-04-16T04:58:11.888Z,54.47
2018-04-16T05:00:40.213Z,53.80
2018-04-16T05:03:08.473Z,53.93
2018-04-16T05:05:36.831Z,52.23
2018-04-16T05:08:05.847Z,52.43
2018-04-16T05:10:34.144Z,53.17
2018-04-16T05:13:02.443Z,54.83
2018-04-16T05:15:30.780Z,54.50
2018-04-16T05:17:59.830Z,53.67
2018-04-16T05:20:28.089Z,55.37
2018-04-16T05:22:56.501Z,55.07
2018-04-16T05:25:25.495Z,56.07
2018-04-16T05:27:54.544Z,58.00
2018-04-16T05:30:22.821Z,57.57
2018-04-16T05:32:51.140Z,58.37
2018-04-16T05:35:20.170Z,55.37
2018-04-16T05:37:49.638Z,57.27
2018-04-16T05:40:17.925Z,57.23
2018-04-16T05:42:46.975Z,57.47
2018-04-16T05:45:15.376Z,56.13
2018-04-16T05:47:43.652Z,53.70
2018-04-16T05:50:12.873Z,56.23
2018-04-16T05:52:41.949Z,55.17
2018-04-16T05:55:10.222Z,54.97
2018-04-16T05:57:38.484Z,55.83
2018-04-16T06:00:06.784Z,55.33
2018-04-16T06:02:35.108Z,55.70
2018-04-16T06:05:03.738Z,54.87
2018-04-16T06:07:32.014Z,53.73
2018-04-16T06:10:00.296Z,53.30
2018-04-16T06:12:28.580Z,53.73
2018-04-16T06:14:57.584Z,51.33
2018-04-16T06:17:26.623Z,50.77
2018-04-16T06:19:54.931Z,50.25
2018-04-16T06:22:23.187Z,49.60
2018-04-16T06:24:51.444Z,49.13
2018-04-16T06:27:19.847Z,46.50
2018-04-16T06:29:48.828Z,51.27
2018-04-16T06:32:17.234Z,47.93
2018-04-16T06:34:45.603Z,47.30
2018-04-16T06:37:13.864Z,48.17
2018-04-16T06:39:42.169Z,49.27
2018-04-16T06:42:10.452Z,46.23
2018-04-16T06:44:39.617Z,47.10
2018-04-16T06:47:07.875Z,46.07
2018-04-16T06:49:36.145Z,46.20
2018-04-16T06:52:04.424Z,44.47
2018-04-16T06:54:32.718Z,45.83
2018-04-16T06:57:01.048Z,45.13
2018-04-16T06:59:29.321Z,43.27
2018-04-16T07:01:58.477Z,40.50
2018-04-16T07:04:26.771Z,42.93
2018-04-16T07:06:55.021Z,41.57
2018-04-16T07:09:23.332Z,42.00
2018-04-16T07:11:51.587Z,41.67
2018-04-16T07:14:19.882Z,42.27
2018-04-16T07:16:48.137Z,42.97
2018-04-16T07:19:16.426Z,40.53
2018-04-16T07:21:45.482Z,39.93
2018-04-16T07:24:15.545Z,40.90
2018-04-16T07:26:43.773Z,38.77
2018-04-16T07:29:12.028Z,39.03
2018-04-16T07:31:40.312Z,41.20
2018-04-16T07:34:08.714Z,37.17
2018-04-16T07:36:36.991Z,37.28
2018-04-16T07:39:06.844Z,37.92
2018-04-16T07:41:35.868Z,37.60
2018-04-16T07:44:04.152Z,40.70
2018-04-16T07:46:32.483Z,37.27
2018-04-16T07:49:00.780Z,36.13
2018-04-16T07:51:29.024Z,36.07
2018-04-16T07:53:57.383Z,39.80
2018-04-16T07:56:25.685Z,36.93
2018-04-16T07:58:54.949Z,38.45
2018-04-16T08:01:23.219Z,38.25
2018-04-16T08:03:51.545Z,38.30
2018-04-16T08:06:20.586Z,38.67
2018-04-16T08:08:48.861Z,38.43
2018-04-16T08:11:17.117Z,37.77
2018-04-16T08:13:45.435Z,37.90
2018-04-16T08:16:14.309Z,36.47
2018-04-16T08:18:42.562Z,37.33
2018-04-16T08:21:10.848Z,36.13
2018-04-16T08:23:39.079Z,36.83
2018-04-16T08:26:08.174Z,37.80
2018-04-16T08:28:36.440Z,38.30
2018-04-16T08:31:04.746Z,39.30
2018-04-16T08:33:33.692Z,37.57
2018-04-16T08:36:02.004Z,39.00
2018-04-16T08:38:30.379Z,39.63
2018-04-16T08:40:59.457Z,36.17
2018-04-16T08:43:27.735Z,39.97
2018-04-16T08:45:56.099Z,38.38
2018-04-16T08:48:24.383Z,37.57
2018-04-16T08:50:52.696Z,37.87
2018-04-16T08:53:21.042Z,37.17
2018-04-16T08:55:49.331Z,37.20
2018-04-16T08:58:18.358Z,36.70
2018-04-16T09:00:46.698Z,36.25
2018-04-16T09:03:15.125Z,36.10
2018-04-16T09:05:43.375Z,37.22
2018-04-16T09:08:11.683Z,37.87
2018-04-16T09:10:40.059Z,37.25
2018-04-16T09:13:08.381Z,34.03
2018-04-16T09:15:36.736Z,35.47
2018-04-16T09:18:05.052Z,38.40
2018-04-16T09:20:34.131Z,35.95
2018-04-16T09:23:02.448Z,34.22
2018-04-16T09:25:31.361Z,34.80
2018-04-16T09:27:59.638Z,38.55
2018-04-16T09:30:27.946Z,38.47
2018-04-16T09:32:56.226Z,37.58
2018-04-16T09:35:24.500Z,39.35
2018-04-16T09:37:52.812Z,35.42
2018-04-16T09:40:21.092Z,39.03
2018-04-16T09:42:49.404Z,35.38
2018-04-16T09:45:18.359Z,37.17
2018-04-16T09:47:46.640Z,36.00
2018-04-16T09:50:14.926Z,35.25
2018-04-16T09:52:43.179Z,36.80
2018-04-16T09:55:11.465Z,35.83
2018-04-16T09:57:39.813Z,36.30
2018-04-16T10:00:08.059Z,38.45
2018-04-16T10:02:36.368Z,37.38
2018-04-16T10:05:04.660Z,37.95
2018-04-16T10:07:32.969Z,36.53
2018-04-16T10:10:01.672Z,37.78
2018-04-16T10:12:30.007Z,38.90
2018-04-16T10:14:58.294Z,35.55
2018-04-16T10:17:26.679Z,32.88
2018-04-16T10:19:54.997Z,34.60
2018-04-16T10:22:23.269Z,32.67
2018-04-16T10:24:51.593Z,31.77
2018-04-16T10:27:19.916Z,31.02
2018-04-16T10:29:48.349Z,31.13
2018-04-16T10:32:17.370Z,32.67
2018-04-16T10:34:45.639Z,33.97
2018-04-16T10:37:13.958Z,35.70
2018-04-16T10:39:42.214Z,34.45
2018-04-16T10:42:11.421Z,34.60
2018-04-16T10:44:39.835Z,33.67
2018-04-16T10:47:08.847Z,32.35
2018-04-16T10:49:37.155Z,31.00
2018-04-16T10:52:05.451Z,30.67
2018-04-16T10:54:33.700Z,27.20
2018-04-16T10:57:01.965Z,24.45
2018-04-16T10:59:30.281Z,23.75
2018-04-16T11:01:58.569Z,27.55
2018-04-16T11:04:26.946Z,25.98
2018-04-16T11:06:55.297Z,26.33
2018-04-16T11:09:23.577Z,26.48
2018-04-16T11:11:51.854Z,25.75
2018-04-16T11:14:20.127Z,23.35
2018-04-16T11:16:48.371Z,23.12
2018-04-16T11:19:16.703Z,20.62
2018-04-16T11:21:45.079Z,20.37
2018-04-16T11:24:13.372Z,22.35
2018-04-16T11:26:42.400Z,20.90
2018-04-16T11:29:10.716Z,22.08
2018-04-16T11:31:38.984Z,24.40
2018-04-16T11:34:07.269Z,23.40
2018-04-16T11:36:35.529Z,22.15
2018-04-16T11:39:04.582Z,20.45
2018-04-16T11:41:33.320Z,22.02
2018-04-16T11:44:01.593Z,22.80
2018-04-16T11:46:29.847Z,22.87
2018-04-16T11:48:58.225Z,20.83
2018-04-16T11:51:26.493Z,22.23
2018-04-16T11:53:54.802Z,20.40
2018-04-16T11:56:23.090Z,20.55
2018-04-16T11:58:51.538Z,21.75
2018-04-16T12:01:19.815Z,22.77
2018-04-16T12:03:48.077Z,22.77
2018-04-16T12:06:16.389Z,22.50
2018-04-16T12:08:44.644Z,23.80
2018-04-16T12:11:12.910Z,23.00
2018-04-16T12:13:42.300Z,24.58
2018-04-16T12:16:10.556Z,24.60
2018-04-16T12:18:38.880Z,22.85
2018-04-16T12:21:07.185Z,24.23
2018-04-16T12:23:35.456Z,24.52
2018-04-16T12:26:09.917Z,26.00
2018-04-16T12:28:44.226Z,30.00
2018-04-16T12:31:19.230Z,32.40
2018-04-16T12:33:47.572Z,31.70
2018-04-16T12:36:15.908Z,31.92
2018-04-16T12:38:51.038Z,34.33
2018-04-16T12:41:19.321Z,33.97
2018-04-16T12:43:54.085Z,33.27
2018-04-16T12:46:28.342Z,35.38
2018-04-16T12:48:56.591Z,34.35
2018-04-16T12:51:30.907Z,33.33
2018-04-16T12:54:11.256Z,37.20
2018-04-16T12:56:51.416Z,38.97
2018-04-16T12:59:19.725Z,43.92
2018-04-16T13:01:47.983Z,42.97
2018-04-16T13:04:21.988Z,49.42
2018-04-16T13:06:56.227Z,48.40
2018-04-16T13:09:30.309Z,48.13
2018-04-16T13:11:58.595Z,49.13
2018-04-16T13:14:26.922Z,49.88
2018-04-16T13:16:55.210Z,51.53
2018-04-16T13:19:23.654Z,49.83
2018-04-16T13:21:51.928Z,46.42
2018-04-16T13:24:20.202Z,44.35
2018-04-16T13:27:00.260Z,46.78
2018-04-16T13:29:34.340Z,43.65
2018-04-16T13:32:02.599Z,44.33
2018-04-16T13:34:30.872Z,42.17
2018-04-16T13:36:59.167Z,43.20
2018-04-16T13:39:27.428Z,41.78
2018-04-16T13:42:02.073Z,38.30
2018-04-16T13:44:30.362Z,42.45
2018-04-16T13:46:58.604Z,43.83
2018-04-16T13:49:26.873Z,43.25
2018-04-16T13:51:55.133Z,40.03
2018-04-16T13:54:28.995Z,39.35
2018-04-16T13:56:57.315Z,39.38
2018-04-16T13:59:27.506Z,40.20
2018-04-16T14:01:55.750Z,39.15
2018-04-16T14:04:24.160Z,38.25
2018-04-16T14:06:52.486Z,39.13
2018-04-16T14:09:21.478Z,40.42
2018-04-16T14:11:56.595Z,39.58
2018-04-16T14:14:25.609Z,40.15
2018-04-16T14:16:53.891Z,40.97
2018-04-16T14:19:29.665Z,38.20
2018-04-16T14:21:57.954Z,37.00
2018-04-16T14:24:32.115Z,37.80
2018-04-16T14:27:01.179Z,34.15
2018-04-16T14:29:35.581Z,34.20
2018-04-16T14:32:09.960Z,34.05
2018-04-16T14:34:38.278Z,34.97
2018-04-16T14:37:12.360Z,34.97
2018-04-16T14:39:41.807Z,36.20
2018-04-16T14:42:21.595Z,35.87
2018-04-16T14:44:49.868Z,37.50
2018-04-16T14:47:24.134Z,39.55
2018-04-16T14:49:52.390Z,39.83
2018-04-16T14:52:26.579Z,43.47
2018-04-16T14:54:54.914Z,39.07
2018-04-16T14:57:29.192Z,41.43
2018-04-16T15:00:04.572Z,40.67
2018-04-16T15:02:38.584Z,40.40
2018-04-16T15:05:06.945Z,38.93
2018-04-16T15:07:35.311Z,39.37
2018-04-16T15:10:10.255Z,36.70
2018-04-16T15:12:45.576Z,35.13
2018-04-16T15:15:13.897Z,35.40
2018-04-16T15:17:42.184Z,37.27
2018-04-16T15:20:11.278Z,33.37
2018-04-16T15:22:40.305Z,35.60
2018-04-16T15:25:08.578Z,33.83
2018-04-16T15:27:36.890Z,33.53
2018-04-16T15:30:05.192Z,33.77
2018-04-16T15:32:34.227Z,35.17
2018-04-16T15:35:02.518Z,32.47
2018-04-16T15:37:30.776Z,31.03
2018-04-16T15:39:59.092Z,32.20
2018-04-16T15:42:28.496Z,32.67
2018-04-16T15:44:56.768Z,30.27
2018-04-16T15:47:25.045Z,28.97
2018-04-16T15:49:53.335Z,29.60
2018-04-16T15:52:21.633Z,29.17
2018-04-16T15:54:50.669Z,29.87
2018-04-16T15:57:20.076Z,29.80
2018-04-16T15:59:48.364Z,29.03
2018-04-16T16:02:16.649Z,30.23
2018-04-16T16:04:44.951Z,26.97
2018-04-16T16:07:14.347Z,28.17
2018-04-16T16:09:42.730Z,30.00
2018-04-16T16:12:10.997Z,26.80
2018-04-16T16:14:39.296Z,27.40
2018-04-16T16:17:08.367Z,26.80
2018-04-16T16:19:36.636Z,28.13
2018-04-16T16:22:05.035Z,24.97
2018-04-16T16:24:34.242Z,23.87
2018-04-16T16:27:03.312Z,25.03
2018-04-16T16:29:31.565Z,22.53
2018-04-16T16:31:59.842Z,22.30
2018-04-16T16:34:28.201Z,16.27
2018-04-16T16:36:56.504Z,9.07
2018-04-16T16:39:24.812Z,9.07
2018-04-16T16:41:53.859Z,8.13
2018-04-16T16:44:22.146Z,7.00
2018-04-16T16:46:50.452Z,6.30
2018-04-16T16:49:18.721Z,6.80
2018-04-16T16:51:47.062Z,5.30
2018-04-16T16:54:15.447Z,5.93
2018-04-16T16:56:43.614Z,5.77
2018-04-16T16:59:11.868Z,5.83
2018-04-16T17:01:40.162Z,5.50
2018-04-16T17:04:09.268Z,5.57
2018-04-16T17:06:37.542Z,6.90
2018-04-16T17:09:05.832Z,6.13
2018-04-16T17:11:34.175Z,7.40
2018-04-16T17:14:02.511Z,8.07
2018-04-16T17:16:30.803Z,8.50
2018-04-16T17:18:59.855Z,9.77
2018-04-16T17:21:28.152Z,9.10
2018-04-16T17:23:56.533Z,8.87
2018-04-16T17:26:25.716Z,8.80
2018-04-16T17:28:53.951Z,8.90
2018-04-16T17:31:22.271Z,8.63
2018-04-16T17:33:50.549Z,8.40
2018-04-16T17:36:18.854Z,8.83
2018-04-16T17:38:47.900Z,9.13
2018-04-16T17:41:16.222Z,9.83
2018-04-16T17:43:45.328Z,8.67
2018-04-16T17:46:14.350Z,8.70
2018-04-16T17:48:42.686Z,8.23
2018-04-16T17:51:10.978Z,8.70
2018-04-16T17:53:40.071Z,7.93
2018-04-16T17:56:09.083Z,7.53
2018-04-16T17:58:37.358Z,7.33
2018-04-16T18:01:05.775Z,7.07
2018-04-16T18:03:34.026Z,6.73
2018-04-16T18:06:02.297Z,5.70
2018-04-16T18:08:30.600Z,6.13
2018-04-16T18:10:58.876Z,4.47
2018-04-16T18:13:27.166Z,6.07
2018-04-16T18:15:55.504Z,4.17
2018-04-16T18:18:23.814Z,4.20
2018-04-16T18:20:52.085Z,5.13
2018-04-16T18:23:20.405Z,4.70
2018-04-16T18:25:49.487Z,4.33
2018-04-16T18:28:17.846Z,4.30
2018-04-16T18:30:46.468Z,4.07
2018-04-16T18:33:15.961Z,4.80
2018-04-16T18:35:45.007Z,4.60
2018-04-16T18:38:13.393Z,4.77
2018-04-16T18:40:41.698Z,3.93
2018-04-16T18:43:10.832Z,5.30
2018-04-16T18:45:39.374Z,5.23
2018-04-16T18:48:07.710Z,5.10
2018-04-16T18:50:35.994Z,5.83
2018-04-16T18:53:04.314Z,5.40
2018-04-16T18:55:33.348Z,5.67
2018-04-16T18:58:01.668Z,4.70
2018-04-16T19:00:29.993Z,5.80
2018-04-16T19:02:58.295Z,5.00
2018-04-16T19:05:26.697Z,5.07
2018-04-16T19:07:54.967Z,4.77
2018-04-16T19:10:23.325Z,5.10
2018-04-16T19:12:51.649Z,5.53
2018-04-16T19:15:20.736Z,5.30
2018-04-16T19:17:57.664Z,5.10
2018-04-16T19:20:32.354Z,4.73
2018-04-16T19:23:00.641Z,5.73
2018-04-16T19:25:29.718Z,6.40
2018-04-16T19:28:04.433Z,6.17
2018-04-16T19:30:32.827Z,6.65
2018-04-16T19:33:07.611Z,6.27
2018-04-16T19:35:36.184Z,6.07
2018-04-16T19:38:04.443Z,6.45
2018-04-16T19:40:32.770Z,6.20
2018-04-16T19:43:01.188Z,6.57
2018-04-16T19:45:31.115Z,6.27
2018-04-16T19:47:59.426Z,6.30
2018-04-16T19:50:27.782Z,8.57
2018-04-16T19:52:56.109Z,6.47
2018-04-16T19:55:25.203Z,6.57
2018-04-16T19:57:59.177Z,6.63
2018-04-16T20:00:27.502Z,6.90
2018-04-16T20:03:02.270Z,6.47
2018-04-16T20:05:30.540Z,7.03
2018-04-16T20:07:58.827Z,7.60
2018-04-16T20:10:27.141Z,7.20
2018-04-16T20:12:55.468Z,7.63
2018-04-16T20:15:23.840Z,7.07
2018-04-16T20:17:52.125Z,7.93
2018-04-16T20:20:20.434Z,8.13
2018-04-16T20:22:48.735Z,6.90
2018-04-16T20:25:17.802Z,7.53
2018-04-16T20:27:46.079Z,7.63
2018-04-16T20:30:14.381Z,8.13
2018-04-16T20:32:43.472Z,9.47
2018-04-16T20:35:11.759Z,7.00
2018-04-16T20:37:41.705Z,7.87
2018-04-16T20:40:10.019Z,8.40
2018-04-16T20:42:38.329Z,8.20
2018-04-16T20:45:07.391Z,8.47
2018-04-16T20:47:35.693Z,8.80
2018-04-16T20:50:04.745Z,8.87
2018-04-16T20:52:33.022Z,8.87
2018-04-16T20:55:01.304Z,8.47
2018-04-16T20:57:29.643Z,7.80
2018-04-16T20:59:57.932Z,9.20
2018-04-16T21:02:26.228Z,8.30
2018-04-16T21:04:54.487Z,8.90
2018-04-16T21:07:22.763Z,9.57
2018-04-16T21:09:51.040Z,9.77
2018-04-16T21:12:19.330Z,9.60
2018-04-16T21:14:47.687Z,8.63
2018-04-16T21:17:15.985Z,9.80
2018-04-16T21:19:44.282Z,12.45
2018-04-16T21:22:12.537Z,13.93
2018-04-16T21:24:40.798Z,17.63
2018-04-16T21:27:09.107Z,15.23
2018-04-16T21:29:37.364Z,16.37
2018-04-16T21:32:05.659Z,16.45
2018-04-16T21:34:33.944Z,16.40
2018-04-16T21:37:02.217Z,16.37
2018-04-16T21:39:32.128Z,16.10
2018-04-16T21:42:00.398Z,16.30
2018-04-16T21:44:28.854Z,15.53
2018-04-16T21:46:57.141Z,16.10
2018-04-16T21:49:25.422Z,14.73
2018-04-16T21:51:53.746Z,14.77
2018-04-16T21:54:22.258Z,10.83
2018-04-16T21:56:50.576Z,13.83
2018-04-16T21:59:18.844Z,13.83
2018-04-16T22:01:47.077Z,13.23
2018-04-16T22:04:15.411Z,13.17
2018-04-16T22:06:43.711Z,12.03
2018-04-16T22:09:12.806Z,11.07
2018-04-16T22:11:41.850Z,11.57
2018-04-16T22:14:10.107Z,12.83
2018-04-16T22:16:38.410Z,13.87
2018-04-16T22:19:06.698Z,13.13
2018-04-16T22:21:35.020Z,13.40
2018-04-16T22:24:03.288Z,11.60
2018-04-16T22:26:31.520Z,12.47
2018-04-16T22:28:59.796Z,14.20
2018-04-16T22:31:28.075Z,13.13
2018-04-16T22:33:56.355Z,13.37
2018-04-16T22:36:24.667Z,11.50
2018-04-16T22:38:52.945Z,12.67
2018-04-16T22:41:21.233Z,13.77
2018-04-16T22:43:49.513Z,13.90
2018-04-16T22:46:17.813Z,13.70
2018-04-16T22:48:47.283Z,13.63
2018-04-16T22:51:16.307Z,13.73
2018-04-16T22:53:45.688Z,12.65
2018-04-16T22:56:13.973Z,14.20
2018-04-16T22:58:42.262Z,12.27
2018-04-16T23:01:10.572Z,12.73
2018-04-16T23:03:38.856Z,12.17
2018-04-16T23:06:07.895Z,13.20
2018-04-16T23:08:36.157Z,13.23
2018-04-16T23:11:04.400Z,12.50
2018-04-16T23:13:33.460Z,14.37
2018-04-16T23:16:01.731Z,13.40
2018-04-16T23:18:30.794Z,13.93
2018-04-16T23:20:59.947Z,12.57
2018-04-16T23:23:28.985Z,13.43
2018-04-16T23:25:58.014Z,13.57
2018-04-16T23:28:26.343Z,13.07
2018-04-16T23:30:54.661Z,13.17
2018-04-16T23:33:22.984Z,14.20
2018-04-16T23:35:51.350Z,12.40
2018-04-16T23:38:19.597Z,13.40
2018-04-16T23:40:47.907Z,12.63
2018-04-16T23:43:16.191Z,13.50
2018-04-16T23:45:45.246Z,14.30
2018-04-16T23:48:13.501Z,11.93
2018-04-16T23:50:41.814Z,14.67
2018-04-16T23:53:10.087Z,14.37
2018-04-16T23:55:38.329Z,14.97
2018-04-16T23:58:06.634Z,17.37
